sensor_id;sensor_type;location;lat;lon;timestamp;temperature;humidity
48043;DHT22;33988;47.992;8.820;2023-05-18T00:00:23;14.70;46.80
48043;DHT22;33988;47.992;8.820;2023-05-18T00:02:50;14.70;46.80
48043;DHT22;33988;47.992;8.820;2023-05-18T00:05:22;14.70;46.80
48043;DHT22;33988;47.992;8.820;2023-05-18T00:07:52;14.70;46.80
48043;DHT22;33988;47.992;8.820;2023-05-18T00:10:22;14.70;46.90
48043;DHT22;33988;47.992;8.820;2023-05-18T00:12:49;14.60;46.90
48043;DHT22;33988;47.992;8.820;2023-05-18T00:15:18;14.60;46.90
48043;DHT22;33988;47.992;8.820;2023-05-18T00:17:46;14.60;46.90
48043;DHT22;33988;47.992;8.820;2023-05-18T00:20:14;14.60;46.90
48043;DHT22;33988;47.992;8.820;2023-05-18T00:22:44;14.60;47.00
48043;DHT22;33988;47.992;8.820;2023-05-18T00:25:13;14.60;47.00
48043;DHT22;33988;47.992;8.820;2023-05-18T00:27:40;14.60;47.00
48043;DHT22;33988;47.992;8.820;2023-05-18T00:30:10;14.50;47.00
48043;DHT22;33988;47.992;8.820;2023-05-18T00:32:44;14.50;47.10
48043;DHT22;33988;47.992;8.820;2023-05-18T00:35:11;14.50;47.10
48043;DHT22;33988;47.992;8.820;2023-05-18T00:37:39;14.50;47.10
48043;DHT22;33988;47.992;8.820;2023-05-18T00:40:07;14.50;47.10
48043;DHT22;33988;47.992;8.820;2023-05-18T00:42:34;14.50;47.20
48043;DHT22;33988;47.992;8.820;2023-05-18T00:45:02;14.50;47.20
48043;DHT22;33988;47.992;8.820;2023-05-18T00:47:31;14.50;47.30
48043;DHT22;33988;47.992;8.820;2023-05-18T00:49:58;14.40;47.30
48043;DHT22;33988;47.992;8.820;2023-05-18T00:52:26;14.40;47.30
48043;DHT22;33988;47.992;8.820;2023-05-18T00:54:56;14.40;47.30
48043;DHT22;33988;47.992;8.820;2023-05-18T00:57:25;14.40;47.30
48043;DHT22;33988;47.992;8.820;2023-05-18T00:59:54;14.40;47.30
48043;DHT22;33988;47.992;8.820;2023-05-18T01:02:24;14.40;47.30
48043;DHT22;33988;47.992;8.820;2023-05-18T01:04:56;14.40;48.00
48043;DHT22;33988;47.992;8.820;2023-05-18T01:07:23;14.10;47.50
48043;DHT22;33988;47.992;8.820;2023-05-18T01:09:53;14.30;47.40
48043;DHT22;33988;47.992;8.820;2023-05-18T01:12:34;14.30;47.30
48043;DHT22;33988;47.992;8.820;2023-05-18T01:15:17;14.30;47.40
48043;DHT22;33988;47.992;8.820;2023-05-18T01:20:45;14.20;47.50
48043;DHT22;33988;47.992;8.820;2023-05-18T01:26:26;14.20;47.60
48043;DHT22;33988;47.992;8.820;2023-05-18T01:28:58;14.20;47.60
48043;DHT22;33988;47.992;8.820;2023-05-18T01:31:26;14.20;47.60
48043;DHT22;33988;47.992;8.820;2023-05-18T01:33:54;14.20;47.60
48043;DHT22;33988;47.992;8.820;2023-05-18T01:36:21;14.20;47.60
48043;DHT22;33988;47.992;8.820;2023-05-18T01:38:49;14.20;47.70
48043;DHT22;33988;47.992;8.820;2023-05-18T01:41:23;14.20;47.70
48043;DHT22;33988;47.992;8.820;2023-05-18T01:46:35;14.20;47.70
48043;DHT22;33988;47.992;8.820;2023-05-18T01:49:18;14.20;47.70
48043;DHT22;33988;47.992;8.820;2023-05-18T01:52:00;14.10;47.70
48043;DHT22;33988;47.992;8.820;2023-05-18T01:54:32;14.20;47.70
48043;DHT22;33988;47.992;8.820;2023-05-18T01:57:02;14.10;47.70
48043;DHT22;33988;47.992;8.820;2023-05-18T01:59:35;14.10;47.70
48043;DHT22;33988;47.992;8.820;2023-05-18T02:02:03;14.10;47.70
48043;DHT22;33988;47.992;8.820;2023-05-18T02:04:31;14.00;47.70
48043;DHT22;33988;47.992;8.820;2023-05-18T02:06:58;14.00;47.80
48043;DHT22;33988;47.992;8.820;2023-05-18T02:09:25;14.00;47.80
48043;DHT22;33988;47.992;8.820;2023-05-18T02:11:52;14.00;47.90
48043;DHT22;33988;47.992;8.820;2023-05-18T02:14:21;14.00;47.90
48043;DHT22;33988;47.992;8.820;2023-05-18T02:16:51;14.00;48.00
48043;DHT22;33988;47.992;8.820;2023-05-18T02:19:22;14.00;48.00
48043;DHT22;33988;47.992;8.820;2023-05-18T02:21:50;14.00;48.00
48043;DHT22;33988;47.992;8.820;2023-05-18T02:24:17;14.00;48.00
48043;DHT22;33988;47.992;8.820;2023-05-18T02:26:44;14.00;48.00
48043;DHT22;33988;47.992;8.820;2023-05-18T02:29:11;14.00;48.10
48043;DHT22;33988;47.992;8.820;2023-05-18T02:31:40;14.00;48.10
48043;DHT22;33988;47.992;8.820;2023-05-18T02:34:07;14.00;48.10
48043;DHT22;33988;47.992;8.820;2023-05-18T02:36:36;14.00;48.10
48043;DHT22;33988;47.992;8.820;2023-05-18T02:39:05;14.00;48.10
48043;DHT22;33988;47.992;8.820;2023-05-18T02:41:35;14.00;48.20
48043;DHT22;33988;47.992;8.820;2023-05-18T02:44:03;14.00;48.20
48043;DHT22;33988;47.992;8.820;2023-05-18T02:46:31;14.00;48.20
48043;DHT22;33988;47.992;8.820;2023-05-18T02:48:58;14.00;48.90
48043;DHT22;33988;47.992;8.820;2023-05-18T02:51:25;14.00;48.30
48043;DHT22;33988;47.992;8.820;2023-05-18T02:53:53;14.00;48.30
48043;DHT22;33988;47.992;8.820;2023-05-18T02:56:23;14.00;48.30
48043;DHT22;33988;47.992;8.820;2023-05-18T02:58:56;14.00;48.30
48043;DHT22;33988;47.992;8.820;2023-05-18T03:01:24;14.00;48.30
48043;DHT22;33988;47.992;8.820;2023-05-18T03:03:55;14.00;48.30
48043;DHT22;33988;47.992;8.820;2023-05-18T03:06:25;14.00;48.30
48043;DHT22;33988;47.992;8.820;2023-05-18T03:08:52;14.00;48.40
48043;DHT22;33988;47.992;8.820;2023-05-18T03:11:23;14.00;48.40
48043;DHT22;33988;47.992;8.820;2023-05-18T03:13:53;14.00;48.40
48043;DHT22;33988;47.992;8.820;2023-05-18T03:16:20;14.00;48.40
48043;DHT22;33988;47.992;8.820;2023-05-18T03:18:47;14.00;48.40
48043;DHT22;33988;47.992;8.820;2023-05-18T03:21:14;14.00;48.40
48043;DHT22;33988;47.992;8.820;2023-05-18T03:23:42;14.00;48.40
48043;DHT22;33988;47.992;8.820;2023-05-18T03:26:09;14.00;48.40
48043;DHT22;33988;47.992;8.820;2023-05-18T03:28:38;14.00;48.40
48043;DHT22;33988;47.992;8.820;2023-05-18T03:31:07;14.00;48.40
48043;DHT22;33988;47.992;8.820;2023-05-18T03:33:34;14.00;48.40
48043;DHT22;33988;47.992;8.820;2023-05-18T03:36:03;14.00;48.40
48043;DHT22;33988;47.992;8.820;2023-05-18T03:38:33;14.00;48.40
48043;DHT22;33988;47.992;8.820;2023-05-18T03:41:00;14.00;48.40
48043;DHT22;33988;47.992;8.820;2023-05-18T03:43:29;14.00;48.40
48043;DHT22;33988;47.992;8.820;2023-05-18T03:45:58;14.00;48.50
48043;DHT22;33988;47.992;8.820;2023-05-18T03:48:26;14.00;48.50
48043;DHT22;33988;47.992;8.820;2023-05-18T03:50:53;14.00;48.50
48043;DHT22;33988;47.992;8.820;2023-05-18T03:53:20;14.00;48.50
48043;DHT22;33988;47.992;8.820;2023-05-18T03:55:47;14.00;48.50
48043;DHT22;33988;47.992;8.820;2023-05-18T03:58:17;14.00;48.50
48043;DHT22;33988;47.992;8.820;2023-05-18T04:00:48;14.00;48.50
48043;DHT22;33988;47.992;8.820;2023-05-18T04:03:17;14.00;48.50
48043;DHT22;33988;47.992;8.820;2023-05-18T04:05:49;14.00;48.50
48043;DHT22;33988;47.992;8.820;2023-05-18T04:08:16;14.00;48.40
48043;DHT22;33988;47.992;8.820;2023-05-18T04:10:44;14.00;48.40
48043;DHT22;33988;47.992;8.820;2023-05-18T04:13:11;14.00;48.40
48043;DHT22;33988;47.992;8.820;2023-05-18T04:15:38;14.00;48.80
48043;DHT22;33988;47.992;8.820;2023-05-18T04:18:07;14.00;48.50
48043;DHT22;33988;47.992;8.820;2023-05-18T04:20:36;14.00;48.50
48043;DHT22;33988;47.992;8.820;2023-05-18T04:23:03;14.00;48.50
48043;DHT22;33988;47.992;8.820;2023-05-18T04:25:35;14.00;48.50
48043;DHT22;33988;47.992;8.820;2023-05-18T04:28:02;14.00;48.50
48043;DHT22;33988;47.992;8.820;2023-05-18T04:30:29;14.00;48.50
48043;DHT22;33988;47.992;8.820;2023-05-18T04:32:56;14.00;48.40
48043;DHT22;33988;47.992;8.820;2023-05-18T04:35:26;14.10;48.60
48043;DHT22;33988;47.992;8.820;2023-05-18T04:37:53;14.10;48.60
48043;DHT22;33988;47.992;8.820;2023-05-18T04:40:25;14.10;48.60
48043;DHT22;33988;47.992;8.820;2023-05-18T04:42:52;14.10;48.60
48043;DHT22;33988;47.992;8.820;2023-05-18T04:45:21;14.10;48.60
48043;DHT22;33988;47.992;8.820;2023-05-18T04:47:51;14.20;48.60
48043;DHT22;33988;47.992;8.820;2023-05-18T04:50:21;14.20;48.50
48043;DHT22;33988;47.992;8.820;2023-05-18T04:52:53;14.20;48.50
48043;DHT22;33988;47.992;8.820;2023-05-18T04:55:25;14.20;48.50
48043;DHT22;33988;47.992;8.820;2023-05-18T04:57:56;14.20;48.50
48043;DHT22;33988;47.992;8.820;2023-05-18T05:00:28;14.20;48.50
48043;DHT22;33988;47.992;8.820;2023-05-18T05:02:58;14.30;48.50
48043;DHT22;33988;47.992;8.820;2023-05-18T05:05:28;14.30;48.50
48043;DHT22;33988;47.992;8.820;2023-05-18T05:07:56;14.40;48.50
48043;DHT22;33988;47.992;8.820;2023-05-18T05:10:24;14.40;48.40
48043;DHT22;33988;47.992;8.820;2023-05-18T05:12:51;14.50;48.50
48043;DHT22;33988;47.992;8.820;2023-05-18T05:15:19;14.50;48.50
48043;DHT22;33988;47.992;8.820;2023-05-18T05:17:47;14.50;48.40
48043;DHT22;33988;47.992;8.820;2023-05-18T05:20:19;14.50;48.40
48043;DHT22;33988;47.992;8.820;2023-05-18T05:22:46;14.60;48.40
48043;DHT22;33988;47.992;8.820;2023-05-18T05:25:16;14.60;48.40
48043;DHT22;33988;47.992;8.820;2023-05-18T05:27:45;14.60;48.40
48043;DHT22;33988;47.992;8.820;2023-05-18T05:30:12;14.70;48.50
48043;DHT22;33988;47.992;8.820;2023-05-18T05:32:41;14.70;48.50
48043;DHT22;33988;47.992;8.820;2023-05-18T05:35:13;14.70;48.50
48043;DHT22;33988;47.992;8.820;2023-05-18T05:37:40;14.80;49.10
48043;DHT22;33988;47.992;8.820;2023-05-18T05:40:10;14.80;48.50
48043;DHT22;33988;47.992;8.820;2023-05-18T05:42:37;14.90;48.50
48043;DHT22;33988;47.992;8.820;2023-05-18T05:45:04;14.90;48.50
48043;DHT22;33988;47.992;8.820;2023-05-18T05:47:32;15.00;48.50
48043;DHT22;33988;47.992;8.820;2023-05-18T05:50:01;15.00;48.50
48043;DHT22;33988;47.992;8.820;2023-05-18T05:52:33;15.10;48.50
48043;DHT22;33988;47.992;8.820;2023-05-18T05:55:00;15.20;48.60
48043;DHT22;33988;47.992;8.820;2023-05-18T05:57:27;15.20;48.60
48043;DHT22;33988;47.992;8.820;2023-05-18T05:59:54;15.30;49.30
48043;DHT22;33988;47.992;8.820;2023-05-18T06:02:21;15.30;48.60
48043;DHT22;33988;47.992;8.820;2023-05-18T06:04:48;15.40;48.60
48043;DHT22;33988;47.992;8.820;2023-05-18T06:07:15;15.40;48.60
48043;DHT22;33988;47.992;8.820;2023-05-18T06:09:44;15.50;48.50
48043;DHT22;33988;47.992;8.820;2023-05-18T06:12:13;15.60;48.60
48043;DHT22;33988;47.992;8.820;2023-05-18T06:14:40;15.60;48.60
48043;DHT22;33988;47.992;8.820;2023-05-18T06:17:09;15.70;48.60
48043;DHT22;33988;47.992;8.820;2023-05-18T06:19:36;15.80;48.60
48043;DHT22;33988;47.992;8.820;2023-05-18T06:22:03;15.80;48.50
48043;DHT22;33988;47.992;8.820;2023-05-18T06:24:31;15.90;48.50
48043;DHT22;33988;47.992;8.820;2023-05-18T06:26:58;15.90;48.40
48043;DHT22;33988;47.992;8.820;2023-05-18T06:29:25;16.00;48.40
48043;DHT22;33988;47.992;8.820;2023-05-18T06:31:52;16.10;48.50
48043;DHT22;33988;47.992;8.820;2023-05-18T06:34:21;16.10;48.50
48043;DHT22;33988;47.992;8.820;2023-05-18T06:36:48;16.20;48.60
48043;DHT22;33988;47.992;8.820;2023-05-18T06:39:15;16.30;49.30
48043;DHT22;33988;47.992;8.820;2023-05-18T06:41:44;16.40;48.70
48043;DHT22;33988;47.992;8.820;2023-05-18T06:44:11;16.50;48.80
48043;DHT22;33988;47.992;8.820;2023-05-18T06:46:40;16.70;49.00
48043;DHT22;33988;47.992;8.820;2023-05-18T06:49:09;16.80;49.40
48043;DHT22;33988;47.992;8.820;2023-05-18T06:51:36;16.90;50.00
48043;DHT22;33988;47.992;8.820;2023-05-18T06:54:03;17.30;50.30
48043;DHT22;33988;47.992;8.820;2023-05-18T06:56:30;17.80;50.30
48043;DHT22;33988;47.992;8.820;2023-05-18T06:58:57;18.20;50.20
48043;DHT22;33988;47.992;8.820;2023-05-18T07:01:28;18.70;50.00
48043;DHT22;33988;47.992;8.820;2023-05-18T07:03:55;19.30;49.30
48043;DHT22;33988;47.992;8.820;2023-05-18T07:06:24;19.80;48.90
48043;DHT22;33988;47.992;8.820;2023-05-18T07:08:54;20.40;48.00
48043;DHT22;33988;47.992;8.820;2023-05-18T07:11:21;20.90;47.30
48043;DHT22;33988;47.992;8.820;2023-05-18T07:13:48;21.40;46.30
48043;DHT22;33988;47.992;8.820;2023-05-18T07:16:20;21.80;45.60
48043;DHT22;33988;47.992;8.820;2023-05-18T07:18:51;22.20;44.80
48043;DHT22;33988;47.992;8.820;2023-05-18T07:21:18;22.50;44.10
48043;DHT22;33988;47.992;8.820;2023-05-18T07:23:45;22.80;43.40
48043;DHT22;33988;47.992;8.820;2023-05-18T07:26:18;23.00;42.70
48043;DHT22;33988;47.992;8.820;2023-05-18T07:28:48;23.20;42.30
48043;DHT22;33988;47.992;8.820;2023-05-18T07:31:20;23.40;41.40
48043;DHT22;33988;47.992;8.820;2023-05-18T07:33:47;23.40;41.30
48043;DHT22;33988;47.992;8.820;2023-05-18T07:36:14;23.50;41.00
48043;DHT22;33988;47.992;8.820;2023-05-18T07:38:44;23.50;40.90
48043;DHT22;33988;47.992;8.820;2023-05-18T07:41:11;23.50;40.50
48043;DHT22;33988;47.992;8.820;2023-05-18T07:43:38;23.50;40.10
48043;DHT22;33988;47.992;8.820;2023-05-18T07:46:05;23.40;39.80
48043;DHT22;33988;47.992;8.820;2023-05-18T07:48:31;23.30;39.60
48043;DHT22;33988;47.992;8.820;2023-05-18T07:51:01;23.20;39.50
48043;DHT22;33988;47.992;8.820;2023-05-18T07:53:28;23.00;39.40
48043;DHT22;33988;47.992;8.820;2023-05-18T07:55:55;22.90;39.40
48043;DHT22;33988;47.992;8.820;2023-05-18T07:58:24;22.80;39.60
48043;DHT22;33988;47.992;8.820;2023-05-18T08:00:51;22.60;39.70
48043;DHT22;33988;47.992;8.820;2023-05-18T08:03:21;22.50;39.70
48043;DHT22;33988;47.992;8.820;2023-05-18T08:05:50;22.50;40.00
48043;DHT22;33988;47.992;8.820;2023-05-18T08:08:17;22.40;40.20
48043;DHT22;33988;47.992;8.820;2023-05-18T08:10:46;22.30;40.10
48043;DHT22;33988;47.992;8.820;2023-05-18T08:13:16;22.30;40.10
48043;DHT22;33988;47.992;8.820;2023-05-18T08:15:45;22.20;40.00
48043;DHT22;33988;47.992;8.820;2023-05-18T08:18:38;22.20;40.10
48043;DHT22;33988;47.992;8.820;2023-05-18T08:21:06;22.20;40.00
48043;DHT22;33988;47.992;8.820;2023-05-18T08:23:38;22.10;40.00
48043;DHT22;33988;47.992;8.820;2023-05-18T08:26:07;22.10;40.00
48043;DHT22;33988;47.992;8.820;2023-05-18T08:28:39;22.10;40.00
48043;DHT22;33988;47.992;8.820;2023-05-18T08:31:11;22.10;40.10
48043;DHT22;33988;47.992;8.820;2023-05-18T08:33:38;22.10;39.30
48043;DHT22;33988;47.992;8.820;2023-05-18T08:36:05;22.10;39.20
48043;DHT22;33988;47.992;8.820;2023-05-18T08:38:34;22.10;39.00
48043;DHT22;33988;47.992;8.820;2023-05-18T08:41:15;22.00;38.90
48043;DHT22;33988;47.992;8.820;2023-05-18T08:46:49;21.90;39.30
48043;DHT22;33988;47.992;8.820;2023-05-18T08:49:18;22.00;39.50
48043;DHT22;33988;47.992;8.820;2023-05-18T08:51:54;22.00;39.40
48043;DHT22;33988;47.992;8.820;2023-05-18T08:54:23;22.00;38.90
48043;DHT22;33988;47.992;8.820;2023-05-18T08:56:52;22.00;39.10
48043;DHT22;33988;47.992;8.820;2023-05-18T08:59:24;22.00;39.00
48043;DHT22;33988;47.992;8.820;2023-05-18T09:01:53;22.00;38.70
48043;DHT22;33988;47.992;8.820;2023-05-18T09:04:21;22.00;39.10
48043;DHT22;33988;47.992;8.820;2023-05-18T09:06:51;22.00;39.00
48043;DHT22;33988;47.992;8.820;2023-05-18T09:09:20;22.00;38.90
48043;DHT22;33988;47.992;8.820;2023-05-18T09:11:48;21.80;39.30
48043;DHT22;33988;47.992;8.820;2023-05-18T09:14:15;22.00;39.30
48043;DHT22;33988;47.992;8.820;2023-05-18T09:16:42;22.10;38.90
48043;DHT22;33988;47.992;8.820;2023-05-18T09:19:12;22.10;38.80
48043;DHT22;33988;47.992;8.820;2023-05-18T09:21:39;22.10;38.80
48043;DHT22;33988;47.992;8.820;2023-05-18T09:24:11;22.10;38.70
48043;DHT22;33988;47.992;8.820;2023-05-18T09:26:38;22.10;38.60
48043;DHT22;33988;47.992;8.820;2023-05-18T09:29:17;22.20;38.70
48043;DHT22;33988;47.992;8.820;2023-05-18T09:31:47;22.10;38.20
48043;DHT22;33988;47.992;8.820;2023-05-18T09:34:15;22.10;38.50
48043;DHT22;33988;47.992;8.820;2023-05-18T09:36:51;22.10;38.30
48043;DHT22;33988;47.992;8.820;2023-05-18T09:39:23;22.10;38.20
48043;DHT22;33988;47.992;8.820;2023-05-18T09:41:54;22.10;38.50
48043;DHT22;33988;47.992;8.820;2023-05-18T09:44:38;22.10;38.30
48043;DHT22;33988;47.992;8.820;2023-05-18T09:47:09;22.10;38.20
48043;DHT22;33988;47.992;8.820;2023-05-18T09:49:36;22.20;38.30
48043;DHT22;33988;47.992;8.820;2023-05-18T09:52:06;22.20;38.10
48043;DHT22;33988;47.992;8.820;2023-05-18T09:54:39;22.10;37.90
48043;DHT22;33988;47.992;8.820;2023-05-18T09:57:06;22.20;38.10
48043;DHT22;33988;47.992;8.820;2023-05-18T09:59:37;22.10;37.90
48043;DHT22;33988;47.992;8.820;2023-05-18T10:02:04;22.20;38.10
48043;DHT22;33988;47.992;8.820;2023-05-18T10:04:35;22.10;38.30
48043;DHT22;33988;47.992;8.820;2023-05-18T10:07:13;22.10;39.10
48043;DHT22;33988;47.992;8.820;2023-05-18T10:09:43;22.20;38.40
48043;DHT22;33988;47.992;8.820;2023-05-18T10:12:12;22.20;38.40
48043;DHT22;33988;47.992;8.820;2023-05-18T10:14:42;22.20;38.20
48043;DHT22;33988;47.992;8.820;2023-05-18T10:17:14;22.30;38.30
48043;DHT22;33988;47.992;8.820;2023-05-18T10:19:44;22.30;37.90
48043;DHT22;33988;47.992;8.820;2023-05-18T10:22:15;22.30;37.80
48043;DHT22;33988;47.992;8.820;2023-05-18T10:24:49;22.30;37.90
48043;DHT22;33988;47.992;8.820;2023-05-18T10:27:23;22.30;37.90
48043;DHT22;33988;47.992;8.820;2023-05-18T10:29:57;22.30;38.00
48043;DHT22;33988;47.992;8.820;2023-05-18T10:32:24;22.30;37.90
48043;DHT22;33988;47.992;8.820;2023-05-18T10:34:52;22.30;37.90
48043;DHT22;33988;47.992;8.820;2023-05-18T10:37:22;22.30;38.30
48043;DHT22;33988;47.992;8.820;2023-05-18T10:39:50;22.30;38.10
48043;DHT22;33988;47.992;8.820;2023-05-18T10:42:21;22.30;38.10
48043;DHT22;33988;47.992;8.820;2023-05-18T10:44:54;22.30;38.20
48043;DHT22;33988;47.992;8.820;2023-05-18T10:47:26;22.40;38.20
48043;DHT22;33988;47.992;8.820;2023-05-18T10:49:54;22.40;38.20
48043;DHT22;33988;47.992;8.820;2023-05-18T10:52:27;22.40;38.20
48043;DHT22;33988;47.992;8.820;2023-05-18T10:54:58;22.40;37.80
48043;DHT22;33988;47.992;8.820;2023-05-18T10:57:32;22.40;37.70
48043;DHT22;33988;47.992;8.820;2023-05-18T11:00:05;22.40;37.70
48043;DHT22;33988;47.992;8.820;2023-05-18T11:02:38;22.50;38.00
48043;DHT22;33988;47.992;8.820;2023-05-18T11:05:09;22.40;37.90
48043;DHT22;33988;47.992;8.820;2023-05-18T11:07:37;22.50;38.00
48043;DHT22;33988;47.992;8.820;2023-05-18T11:10:10;22.50;38.10
48043;DHT22;33988;47.992;8.820;2023-05-18T11:12:42;22.50;38.10
48043;DHT22;33988;47.992;8.820;2023-05-18T11:15:10;22.50;38.10
48043;DHT22;33988;47.992;8.820;2023-05-18T11:17:37;22.50;38.10
48043;DHT22;33988;47.992;8.820;2023-05-18T11:28:00;22.40;37.60
48043;DHT22;33988;47.992;8.820;2023-05-18T11:33:13;22.40;37.80
48043;DHT22;33988;47.992;8.820;2023-05-18T11:36:03;22.40;37.50
48043;DHT22;33988;47.992;8.820;2023-05-18T11:39:03;22.30;37.20
48043;DHT22;33988;47.992;8.820;2023-05-18T11:41:36;22.30;37.40
48043;DHT22;33988;47.992;8.820;2023-05-18T11:44:17;22.30;37.40
48043;DHT22;33988;47.992;8.820;2023-05-18T11:49:30;22.30;37.50
48043;DHT22;33988;47.992;8.820;2023-05-18T11:52:27;22.20;37.80
48043;DHT22;33988;47.992;8.820;2023-05-18T11:57:37;22.20;37.90
48043;DHT22;33988;47.992;8.820;2023-05-18T12:00:13;22.20;38.80
48043;DHT22;33988;47.992;8.820;2023-05-18T12:02:47;22.20;38.20
48043;DHT22;33988;47.992;8.820;2023-05-18T12:05:15;22.20;38.20
48043;DHT22;33988;47.992;8.820;2023-05-18T12:07:42;22.20;38.20
48043;DHT22;33988;47.992;8.820;2023-05-18T12:10:12;22.10;37.90
48043;DHT22;33988;47.992;8.820;2023-05-18T12:12:46;22.20;37.70
48043;DHT22;33988;47.992;8.820;2023-05-18T12:15:14;22.10;37.70
48043;DHT22;33988;47.992;8.820;2023-05-18T12:17:48;22.00;37.80
48043;DHT22;33988;47.992;8.820;2023-05-18T12:20:21;22.00;37.90
48043;DHT22;33988;47.992;8.820;2023-05-18T12:22:54;21.90;37.90
48043;DHT22;33988;47.992;8.820;2023-05-18T12:25:26;21.90;37.90
48043;DHT22;33988;47.992;8.820;2023-05-18T12:27:54;21.80;38.00
48043;DHT22;33988;47.992;8.820;2023-05-18T12:30:24;21.80;37.90
48043;DHT22;33988;47.992;8.820;2023-05-18T12:33:01;21.70;37.90
48043;DHT22;33988;47.992;8.820;2023-05-18T12:35:29;21.60;38.10
48043;DHT22;33988;47.992;8.820;2023-05-18T12:38:01;21.60;38.20
48043;DHT22;33988;47.992;8.820;2023-05-18T12:40:35;21.50;38.30
48043;DHT22;33988;47.992;8.820;2023-05-18T12:43:10;21.50;38.50
48043;DHT22;33988;47.992;8.820;2023-05-18T12:45:37;21.20;38.80
48043;DHT22;33988;47.992;8.820;2023-05-18T12:48:08;21.30;38.70
48043;DHT22;33988;47.992;8.820;2023-05-18T12:50:48;21.30;38.70
48043;DHT22;33988;47.992;8.820;2023-05-18T12:53:18;21.30;38.80
48043;DHT22;33988;47.992;8.820;2023-05-18T12:55:55;21.20;39.00
48043;DHT22;33988;47.992;8.820;2023-05-18T12:58:25;21.20;38.70
48043;DHT22;33988;47.992;8.820;2023-05-18T13:00:52;21.20;38.90
48043;DHT22;33988;47.992;8.820;2023-05-18T13:03:22;21.20;39.00
48043;DHT22;33988;47.992;8.820;2023-05-18T13:06:07;21.10;39.10
48043;DHT22;33988;47.992;8.820;2023-05-18T13:08:37;21.10;39.00
48043;DHT22;33988;47.992;8.820;2023-05-18T13:11:08;21.10;39.20
48043;DHT22;33988;47.992;8.820;2023-05-18T13:14:03;21.10;39.30
48043;DHT22;33988;47.992;8.820;2023-05-18T13:16:37;21.00;39.30
48043;DHT22;33988;47.992;8.820;2023-05-18T13:19:08;21.00;39.40
48043;DHT22;33988;47.992;8.820;2023-05-18T13:21:41;21.10;39.50
48043;DHT22;33988;47.992;8.820;2023-05-18T13:24:08;21.10;39.40
48043;DHT22;33988;47.992;8.820;2023-05-18T13:26:35;21.10;39.40
48043;DHT22;33988;47.992;8.820;2023-05-18T13:29:07;21.10;39.50
48043;DHT22;33988;47.992;8.820;2023-05-18T13:31:36;21.00;39.40
48043;DHT22;33988;47.992;8.820;2023-05-18T13:34:03;21.00;39.50
48043;DHT22;33988;47.992;8.820;2023-05-18T13:36:30;21.00;39.40
48043;DHT22;33988;47.992;8.820;2023-05-18T13:39:01;21.00;39.40
48043;DHT22;33988;47.992;8.820;2023-05-18T13:41:32;20.90;39.20
48043;DHT22;33988;47.992;8.820;2023-05-18T13:44:02;20.90;39.30
48043;DHT22;33988;47.992;8.820;2023-05-18T13:46:31;20.90;39.30
48043;DHT22;33988;47.992;8.820;2023-05-18T13:48:58;20.80;39.30
48043;DHT22;33988;47.992;8.820;2023-05-18T13:51:25;20.80;39.30
48043;DHT22;33988;47.992;8.820;2023-05-18T13:53:55;20.80;39.40
48043;DHT22;33988;47.992;8.820;2023-05-18T13:56:29;20.70;39.40
48043;DHT22;33988;47.992;8.820;2023-05-18T13:58:58;20.70;39.50
48043;DHT22;33988;47.992;8.820;2023-05-18T14:01:28;20.70;39.60
48043;DHT22;33988;47.992;8.820;2023-05-18T14:03:58;20.70;39.70
48043;DHT22;33988;47.992;8.820;2023-05-18T14:06:25;20.70;39.70
48043;DHT22;33988;47.992;8.820;2023-05-18T14:08:53;20.70;39.60
48043;DHT22;33988;47.992;8.820;2023-05-18T14:11:20;20.60;39.50
48043;DHT22;33988;47.992;8.820;2023-05-18T14:13:49;20.60;39.40
48043;DHT22;33988;47.992;8.820;2023-05-18T14:16:19;20.60;39.50
48043;DHT22;33988;47.992;8.820;2023-05-18T14:18:46;20.60;39.60
48043;DHT22;33988;47.992;8.820;2023-05-18T14:21:15;20.60;39.60
48043;DHT22;33988;47.992;8.820;2023-05-18T14:23:44;20.60;39.50
48043;DHT22;33988;47.992;8.820;2023-05-18T14:26:13;20.60;39.50
48043;DHT22;33988;47.992;8.820;2023-05-18T14:28:40;20.50;39.40
48043;DHT22;33988;47.992;8.820;2023-05-18T14:31:09;20.50;39.40
48043;DHT22;33988;47.992;8.820;2023-05-18T14:33:38;20.50;39.40
48043;DHT22;33988;47.992;8.820;2023-05-18T14:36:05;20.20;39.60
48043;DHT22;33988;47.992;8.820;2023-05-18T14:38:35;20.40;39.50
48043;DHT22;33988;47.992;8.820;2023-05-18T14:41:02;20.40;39.50
48043;DHT22;33988;47.992;8.820;2023-05-18T14:43:29;20.30;39.50
48043;DHT22;33988;47.992;8.820;2023-05-18T14:45:56;20.30;39.50
48043;DHT22;33988;47.992;8.820;2023-05-18T14:48:34;20.30;39.70
48043;DHT22;33988;47.992;8.820;2023-05-18T14:51:04;20.30;39.90
48043;DHT22;33988;47.992;8.820;2023-05-18T14:53:31;20.30;40.10
48043;DHT22;33988;47.992;8.820;2023-05-18T14:56:00;20.30;40.00
48043;DHT22;33988;47.992;8.820;2023-05-18T14:58:31;20.30;40.10
48043;DHT22;33988;47.992;8.820;2023-05-18T15:00:58;20.30;40.20
48043;DHT22;33988;47.992;8.820;2023-05-18T15:03:25;20.30;40.20
48043;DHT22;33988;47.992;8.820;2023-05-18T15:05:56;20.30;40.90
48043;DHT22;33988;47.992;8.820;2023-05-18T15:08:28;20.30;40.30
48043;DHT22;33988;47.992;8.820;2023-05-18T15:10:55;20.30;40.30
48043;DHT22;33988;47.992;8.820;2023-05-18T15:13:22;20.30;40.30
48043;DHT22;33988;47.992;8.820;2023-05-18T15:15:51;20.30;40.30
48043;DHT22;33988;47.992;8.820;2023-05-18T15:18:19;20.30;40.50
48043;DHT22;33988;47.992;8.820;2023-05-18T15:20:48;20.40;40.60
48043;DHT22;33988;47.992;8.820;2023-05-18T15:23:20;20.40;40.60
48043;DHT22;33988;47.992;8.820;2023-05-18T15:25:49;20.40;40.50
48043;DHT22;33988;47.992;8.820;2023-05-18T15:28:17;20.40;40.50
48043;DHT22;33988;47.992;8.820;2023-05-18T15:30:46;20.40;40.40
48043;DHT22;33988;47.992;8.820;2023-05-18T15:33:13;20.50;40.50
48043;DHT22;33988;47.992;8.820;2023-05-18T15:35:43;20.50;40.40
48043;DHT22;33988;47.992;8.820;2023-05-18T15:38:10;20.50;40.40
48043;DHT22;33988;47.992;8.820;2023-05-18T15:40:39;20.50;40.30
48043;DHT22;33988;47.992;8.820;2023-05-18T15:43:12;20.50;40.20
48043;DHT22;33988;47.992;8.820;2023-05-18T15:45:39;20.50;40.00
48043;DHT22;33988;47.992;8.820;2023-05-18T15:48:06;20.50;40.10
48043;DHT22;33988;47.992;8.820;2023-05-18T15:50:33;20.50;40.00
48043;DHT22;33988;47.992;8.820;2023-05-18T15:53:00;20.50;40.10
48043;DHT22;33988;47.992;8.820;2023-05-18T15:55:29;20.50;40.20
48043;DHT22;33988;47.992;8.820;2023-05-18T15:57:56;20.60;40.20
48043;DHT22;33988;47.992;8.820;2023-05-18T16:00:23;20.60;40.20
48043;DHT22;33988;47.992;8.820;2023-05-18T16:02:51;20.60;40.20
48043;DHT22;33988;47.992;8.820;2023-05-18T16:05:19;20.60;40.20
48043;DHT22;33988;47.992;8.820;2023-05-18T16:07:46;20.60;40.20
48043;DHT22;33988;47.992;8.820;2023-05-18T16:10:13;20.60;40.30
48043;DHT22;33988;47.992;8.820;2023-05-18T16:12:40;20.60;40.30